createdAt,value
2022-10-05T00:01:35.256Z,56.27
2022-10-05T00:04:18.705Z,51.37
2022-10-05T00:06:51.929Z,45.03
2022-10-05T00:09:23.430Z,41.93
2022-10-05T00:11:50.794Z,35.75
2022-10-05T00:14:19.535Z,39.83
2022-10-05T00:16:46.990Z,38.37
2022-10-05T00:19:22.188Z,37.73
2022-10-05T00:21:49.329Z,71.57
2022-10-05T00:24:17.020Z,72.30
2022-10-05T00:26:44.593Z,71.67
2022-10-05T00:29:20.804Z,64.93
2022-10-05T00:31:48.084Z,50.10
2022-10-05T00:34:15.637Z,41.97
2022-10-05T00:36:42.880Z,49.72
2022-10-05T00:39:10.337Z,44.53
2022-10-05T00:41:40.344Z,33.93
2022-10-05T00:44:11.985Z,32.22
2022-10-05T00:46:42.875Z,28.70
2022-10-05T00:49:26.230Z,28.63
2022-10-05T00:51:58.772Z,31.03
2022-10-05T00:54:32.092Z,33.20
2022-10-05T00:57:01.998Z,42.60
2022-10-05T00:59:50.154Z,47.13
2022-10-05T01:02:46.913Z,50.73
2022-10-05T01:05:14.101Z,57.40
2022-10-05T01:07:44.319Z,40.30
2022-10-05T01:10:23.985Z,40.50
2022-10-05T01:12:57.170Z,39.47
2022-10-05T01:15:42.885Z,38.07
2022-10-05T01:18:12.996Z,38.78
2022-10-05T01:21:00.771Z,42.20
2022-10-05T01:23:46.142Z,30.17
2022-10-05T01:26:19.190Z,32.67
2022-10-05T01:28:48.028Z,30.50
2022-10-05T01:31:35.542Z,33.37
2022-10-05T01:34:11.297Z,33.77
2022-10-05T01:36:42.275Z,32.53
2022-10-05T01:39:26.776Z,30.67
2022-10-05T01:41:56.669Z,36.67
2022-10-05T01:44:31.901Z,36.40
2022-10-05T01:47:08.894Z,31.23
2022-10-05T01:49:47.852Z,20.20
2022-10-05T01:52:33.865Z,25.30
2022-10-05T01:55:19.787Z,34.78
2022-10-05T01:57:59.218Z,52.43
2022-10-05T02:00:26.358Z,52.73
2022-10-05T02:02:57.340Z,46.93
2022-10-05T02:05:34.804Z,36.93
2022-10-05T02:08:03.044Z,48.83
2022-10-05T02:10:38.410Z,41.17
2022-10-05T02:13:26.592Z,35.25
2022-10-05T02:15:55.236Z,27.10
2022-10-05T02:18:29.302Z,31.97
2022-10-05T02:20:56.530Z,42.73
2022-10-05T02:23:24.930Z,36.57
2022-10-05T02:25:52.419Z,33.53
2022-10-05T02:28:38.377Z,42.33
2022-10-05T02:31:07.947Z,41.27
2022-10-05T02:33:35.282Z,43.03
2022-10-05T02:36:03.354Z,46.47
2022-10-05T02:38:49.051Z,46.93
2022-10-05T02:41:26.205Z,42.13
2022-10-05T02:44:14.765Z,51.63
2022-10-05T02:46:50.985Z,47.83
2022-10-05T02:49:41.998Z,51.17
2022-10-05T02:52:12.181Z,44.10
2022-10-05T02:54:50.836Z,43.70
2022-10-05T02:57:22.913Z,47.23
2022-10-05T02:59:59.007Z,56.03
2022-10-05T03:02:41.439Z,75.33
2022-10-05T03:05:13.791Z,66.23
2022-10-05T03:07:40.947Z,71.87
2022-10-05T03:10:15.705Z,65.33
2022-10-05T03:12:45.903Z,71.37
2022-10-05T03:15:13.142Z,87.10
2022-10-05T03:17:49.665Z,64.50
2022-10-05T03:20:34.634Z,75.17
2022-10-05T03:23:02.229Z,73.60
2022-10-05T03:25:32.472Z,64.20
2022-10-05T03:28:17.910Z,57.33
2022-10-05T03:31:04.155Z,56.87
2022-10-05T03:33:43.189Z,57.40
2022-10-05T03:36:31.278Z,58.87
2022-10-05T03:39:28.050Z,54.57
2022-10-05T03:42:13.295Z,77.77
2022-10-05T03:45:00.737Z,57.73
2022-10-05T03:47:38.467Z,70.83
2022-10-05T03:50:17.938Z,62.20
2022-10-05T03:52:46.558Z,56.50
2022-10-05T03:55:16.836Z,61.67
2022-10-05T03:57:44.073Z,70.87
2022-10-05T04:00:37.487Z,59.97
2022-10-05T04:03:16.690Z,65.50
2022-10-05T04:05:48.361Z,77.33
2022-10-05T04:08:19.378Z,68.33
2022-10-05T04:10:47.796Z,65.80
2022-10-05T04:13:41.369Z,66.10
2022-10-05T04:16:28.282Z,68.50
2022-10-05T04:18:57.261Z,70.10
2022-10-05T04:21:35.418Z,62.10
2022-10-05T04:24:10.984Z,59.27
2022-10-05T04:26:39.433Z,61.40
2022-10-05T04:29:25.004Z,56.57
2022-10-05T04:32:09.442Z,55.03
2022-10-05T04:34:55.498Z,51.73
2022-10-05T04:37:24.712Z,47.73
2022-10-05T04:40:02.297Z,40.83
2022-10-05T04:42:37.420Z,28.67
2022-10-05T04:45:13.666Z,18.87
2022-10-05T04:48:01.826Z,27.80
2022-10-05T04:50:32.121Z,23.80
2022-10-05T04:53:28.905Z,33.23
2022-10-05T04:56:03.193Z,52.47
2022-10-05T04:58:40.131Z,54.27
2022-10-05T05:01:28.175Z,58.40
2022-10-05T05:04:02.171Z,56.03
2022-10-05T05:06:32.415Z,53.27
2022-10-05T05:09:05.523Z,57.37
2022-10-05T05:11:45.219Z,60.30
2022-10-05T05:14:21.462Z,54.67
2022-10-05T05:17:13.006Z,59.60
2022-10-05T05:19:43.581Z,46.50
2022-10-05T05:22:16.822Z,52.77
2022-10-05T05:24:44.028Z,53.10
2022-10-05T05:27:40.666Z,58.13
2022-10-05T05:30:13.605Z,44.93
2022-10-05T05:32:52.735Z,58.90
2022-10-05T05:35:19.874Z,57.97
2022-10-05T05:38:06.366Z,61.23
2022-10-05T05:40:34.584Z,62.43
2022-10-05T05:43:10.714Z,63.97
2022-10-05T05:45:45.126Z,77.37
2022-10-05T05:48:24.667Z,75.93
2022-10-05T05:50:54.616Z,69.67
2022-10-05T05:53:22.415Z,68.10
2022-10-05T05:55:50.938Z,64.90
2022-10-05T05:58:18.078Z,66.20
2022-10-05T06:00:46.730Z,123.40
2022-10-05T06:03:16.347Z,112.47
2022-10-05T06:05:54.674Z,87.87
2022-10-05T06:08:40.278Z,63.83
2022-10-05T06:11:21.570Z,70.53
2022-10-05T06:13:49.087Z,59.07
2022-10-05T06:16:24.178Z,54.40
2022-10-05T06:19:05.295Z,65.10
2022-10-05T06:21:32.426Z,65.88
2022-10-05T06:24:01.228Z,63.87
2022-10-05T06:26:46.897Z,62.80
2022-10-05T06:29:23.950Z,55.77
2022-10-05T06:32:11.411Z,64.90
2022-10-05T06:34:41.455Z,63.28
2022-10-05T06:37:12.798Z,62.38
2022-10-05T06:39:43.067Z,75.40
2022-10-05T06:42:28.955Z,87.20
2022-10-05T06:45:11.388Z,58.93
2022-10-05T06:48:12.077Z,65.20
2022-10-05T06:50:48.152Z,66.85
2022-10-05T06:54:03.245Z,56.92
2022-10-05T06:57:20.528Z,36.60
2022-10-05T07:03:21.013Z,73.03
2022-10-05T07:09:05.957Z,72.53
2022-10-05T07:19:22.651Z,59.80
2022-10-05T07:25:32.851Z,55.85
2022-10-05T07:28:51.116Z,53.58
2022-10-05T07:31:50.713Z,51.85
2022-10-05T07:34:48.165Z,47.78
2022-10-05T07:37:55.361Z,51.72
2022-10-05T07:44:12.403Z,31.35
2022-10-05T07:47:04.578Z,26.65
2022-10-05T08:03:42.667Z,17.15
2022-10-05T09:04:02.283Z,4.80
2022-10-05T09:10:26.955Z,3.70
2022-10-05T10:40:09.023Z,2.63
2022-10-05T10:45:47.997Z,4.45
2022-10-05T11:31:10.552Z,4.35
2022-10-05T11:37:57.791Z,3.17
2022-10-05T11:56:33.206Z,5.80
2022-10-05T11:59:13.101Z,4.25
2022-10-05T12:02:21.838Z,3.72
2022-10-05T12:05:26.995Z,3.30
2022-10-05T12:08:24.508Z,3.88
2022-10-05T12:11:28.477Z,4.93
2022-10-05T12:14:15.986Z,7.65
2022-10-05T12:18:05.056Z,5.47
2022-10-05T12:20:32.357Z,4.22
2022-10-05T12:23:54.253Z,6.72
2022-10-05T12:29:58.052Z,4.03
2022-10-05T12:33:04.495Z,3.65
2022-10-05T12:35:54.315Z,3.78
2022-10-05T12:38:41.524Z,4.55
2022-10-05T12:45:08.103Z,5.00
2022-10-05T12:51:49.271Z,5.28
2022-10-05T13:42:12.348Z,3.03
2022-10-05T14:32:01.296Z,3.45
2022-10-05T15:02:56.891Z,5.15
2022-10-05T15:19:05.428Z,6.65
2022-10-05T15:32:22.357Z,16.77
2022-10-05T15:39:09.831Z,25.90
2022-10-05T15:42:42.793Z,23.98
2022-10-05T15:52:25.195Z,22.13
2022-10-05T16:13:03.011Z,35.83
2022-10-05T16:16:33.639Z,40.25
2022-10-05T16:22:51.599Z,23.63
2022-10-05T16:26:01.457Z,29.33
2022-10-05T16:28:50.506Z,54.10
2022-10-05T16:31:38.429Z,35.75
2022-10-05T16:34:17.304Z,41.25
2022-10-05T16:36:53.533Z,53.92
2022-10-05T16:39:38.525Z,76.72
2022-10-05T16:42:17.831Z,72.50
2022-10-05T16:44:54.362Z,134.68
2022-10-05T16:47:29.869Z,73.78
2022-10-05T16:50:00.302Z,24.17
2022-10-05T16:52:28.019Z,31.63
2022-10-05T16:54:57.119Z,54.70
2022-10-05T16:57:31.583Z,36.58
2022-10-05T17:00:01.617Z,15.23
2022-10-05T17:03:04.147Z,8.77
2022-10-05T17:05:51.313Z,9.40
2022-10-05T17:08:29.521Z,7.00
2022-10-05T17:11:17.188Z,6.05
2022-10-05T17:13:47.347Z,6.97
2022-10-05T17:16:19.361Z,6.13
2022-10-05T17:18:58.427Z,7.15
2022-10-05T17:21:34.791Z,107.40
2022-10-05T17:24:06.422Z,6.65
2022-10-05T17:26:39.757Z,6.70
2022-10-05T17:29:30.077Z,8.57
2022-10-05T17:32:15.734Z,23.35
2022-10-05T17:35:11.234Z,48.38
2022-10-05T17:37:40.646Z,59.97
2022-10-05T17:40:28.575Z,95.95
2022-10-05T17:43:01.140Z,70.90
2022-10-05T17:45:34.485Z,55.75
2022-10-05T17:48:03.081Z,53.22
2022-10-05T17:50:58.854Z,78.63
2022-10-05T17:53:53.677Z,93.82
2022-10-05T17:56:21.732Z,87.38
2022-10-05T17:58:54.583Z,83.75
2022-10-05T18:01:30.392Z,79.10
2022-10-05T18:04:12.926Z,85.18
2022-10-05T18:06:41.686Z,79.53
2022-10-05T18:09:11.862Z,76.22
2022-10-05T18:11:39.525Z,76.00
2022-10-05T18:14:24.710Z,82.03
2022-10-05T18:17:04.983Z,73.63
2022-10-05T18:19:33.269Z,66.97
2022-10-05T18:22:05.835Z,65.38
2022-10-05T18:24:42.235Z,73.72
2022-10-05T18:27:16.760Z,90.13
2022-10-05T18:30:05.658Z,60.65
2022-10-05T18:32:32.940Z,57.38
2022-10-05T18:35:11.366Z,123.20
2022-10-05T18:37:57.233Z,47.20
2022-10-05T18:40:40.167Z,33.58
2022-10-05T18:43:17.193Z,43.88
2022-10-05T18:45:51.461Z,46.95
2022-10-05T18:48:24.868Z,25.88
2022-10-05T18:51:03.578Z,12.88
2022-10-05T18:53:33.193Z,14.90
2022-10-05T18:56:19.205Z,34.97
2022-10-05T18:58:53.217Z,34.28
2022-10-05T19:01:29.151Z,44.17
2022-10-05T19:04:00.831Z,33.67
2022-10-05T19:06:30.080Z,36.05
2022-10-05T19:09:15.736Z,27.55
2022-10-05T19:11:51.415Z,32.55
2022-10-05T19:14:21.614Z,11.32
2022-10-05T19:17:01.031Z,10.40
2022-10-05T19:20:00.406Z,7.80
2022-10-05T19:22:33.548Z,7.40
2022-10-05T19:25:05.329Z,14.80
2022-10-05T19:27:40.416Z,42.15
2022-10-05T19:30:34.093Z,53.55
2022-10-05T19:33:05.073Z,59.80
2022-10-05T19:35:40.472Z,54.03
2022-10-05T19:38:15.162Z,47.08
2022-10-05T19:40:46.405Z,55.78
2022-10-05T19:43:18.925Z,54.38
2022-10-05T19:45:58.684Z,58.95
2022-10-05T19:48:27.598Z,56.05
2022-10-05T19:51:01.303Z,62.20
2022-10-05T19:53:32.128Z,21.88
2022-10-05T19:56:11.104Z,41.35
2022-10-05T19:58:39.789Z,39.90
2022-10-05T20:01:07.144Z,35.30
2022-10-05T20:03:37.296Z,63.28
2022-10-05T20:06:13.606Z,51.55
2022-10-05T20:08:44.841Z,53.15
2022-10-05T20:11:13.106Z,50.88
2022-10-05T20:13:45.730Z,63.75
2022-10-05T20:16:34.396Z,64.13
2022-10-05T20:19:40.123Z,64.40
2022-10-05T20:22:25.633Z,63.42
2022-10-05T20:24:53.616Z,53.08
2022-10-05T20:27:39.432Z,51.47
2022-10-05T20:30:07.057Z,42.00
2022-10-05T20:32:34.332Z,38.58
2022-10-05T20:35:01.470Z,37.22
2022-10-05T20:37:28.669Z,32.88
2022-10-05T20:39:55.840Z,31.10
2022-10-05T20:42:23.847Z,43.58
2022-10-05T20:44:56.495Z,45.05
2022-10-05T20:47:24.179Z,53.33
2022-10-05T20:49:53.430Z,51.15
2022-10-05T20:52:20.828Z,48.45
2022-10-05T20:54:48.108Z,51.10
2022-10-05T20:57:15.292Z,56.50
2022-10-05T20:59:42.521Z,59.70
2022-10-05T21:02:35.020Z,45.88
2022-10-05T21:05:04.639Z,41.90
2022-10-05T21:07:34.083Z,36.13
2022-10-05T21:10:02.367Z,37.00
2022-10-05T21:12:29.584Z,56.60
2022-10-05T21:14:56.720Z,38.88
2022-10-05T21:17:23.850Z,50.53
2022-10-05T21:19:52.608Z,36.03
2022-10-05T21:22:19.757Z,35.90
2022-10-05T21:24:46.946Z,35.80
2022-10-05T21:27:14.111Z,35.83
2022-10-05T21:29:41.471Z,35.60
2022-10-05T21:32:11.573Z,39.38
2022-10-05T21:34:39.461Z,39.63
2022-10-05T21:37:06.833Z,37.15
2022-10-05T21:39:35.159Z,34.90
2022-10-05T21:42:02.382Z,38.28
2022-10-05T21:44:29.534Z,42.92
2022-10-05T21:46:56.825Z,44.85
2022-10-05T21:49:24.236Z,53.90
2022-10-05T21:51:51.401Z,46.60
2022-10-05T21:54:19.238Z,46.42
2022-10-05T21:56:47.416Z,57.28
2022-10-05T21:59:15.693Z,63.10
2022-10-05T22:01:42.869Z,56.60
2022-10-05T22:04:10.086Z,55.60
2022-10-05T22:06:37.315Z,46.03
2022-10-05T22:09:04.702Z,45.13
2022-10-05T22:11:32.047Z,42.60
2022-10-05T22:14:02.703Z,43.05
2022-10-05T22:16:33.775Z,41.53
2022-10-05T22:19:08.267Z,46.83
2022-10-05T22:21:41.368Z,45.40
2022-10-05T22:24:08.967Z,36.70
2022-10-05T22:26:36.174Z,35.65
2022-10-05T22:29:03.403Z,46.55
2022-10-05T22:31:30.628Z,51.22
2022-10-05T22:33:57.866Z,46.92
2022-10-05T22:36:25.031Z,49.20
2022-10-05T22:38:52.309Z,43.47
2022-10-05T22:41:19.481Z,45.50
2022-10-05T22:43:50.846Z,48.25
2022-10-05T22:46:18.105Z,52.78
2022-10-05T22:48:45.321Z,43.83
2022-10-05T22:51:12.529Z,50.13
2022-10-05T22:53:39.659Z,50.17
2022-10-05T22:56:10.674Z,51.45
2022-10-05T22:58:37.887Z,57.35
2022-10-05T23:01:05.665Z,51.95
2022-10-05T23:03:33.003Z,53.58
2022-10-05T23:06:03.002Z,57.08
2022-10-05T23:08:31.394Z,49.47
2022-10-05T23:11:05.458Z,55.15
2022-10-05T23:13:33.330Z,51.13
2022-10-05T23:16:05.934Z,50.20
2022-10-05T23:18:33.830Z,52.13
2022-10-05T23:21:00.941Z,55.53
2022-10-05T23:23:28.116Z,53.72
2022-10-05T23:26:04.078Z,72.43
2022-10-05T23:28:31.855Z,54.97
2022-10-05T23:31:00.217Z,73.63
2022-10-05T23:33:27.594Z,66.75
2022-10-05T23:36:03.579Z,58.95
2022-10-05T23:38:31.268Z,59.67
2022-10-05T23:40:58.900Z,70.95
2022-10-05T23:43:26.850Z,71.85
2022-10-05T23:45:55.006Z,62.22
2022-10-05T23:48:22.276Z,60.30
2022-10-05T23:50:49.846Z,46.45
2022-10-05T23:53:17.176Z,47.90
2022-10-05T23:55:44.399Z,53.22
2022-10-05T23:58:11.639Z,51.58
